Time;durP1;ratioP1;P1;durP2;ratioP2;P2;SDS_P1;SDS_P2;PMS_P1;PMS_P2;Temp;Humidity;BMP_temperature;BMP_pressure;BME280_temperature;BME280_humidity;BME280_pressure;Samples;Min_cycle;Max_cycle;Signal;HPM_P1;HPM_P2
2022/04/05 00:00:00;;;;;;;;;37.50;34.25;;;;;7.89;45.81;99142.69;4990102;28;8882;-73
2022/04/05 00:02:29;;;;;;;;;41.25;39.50;;;;;7.81;46.09;99137.47;5006252;28;9596;-75
2022/04/05 00:04:57;;;;;;;;;40.25;35.25;;;;;7.68;46.84;99132.22;5005714;28;8969;-74
2022/04/05 00:07:26;;;;;;;;;45.25;39.25;;;;;7.60;46.80;99138.22;5006456;28;8870;-75
2022/04/05 00:09:56;;;;;;;;;42.50;38.50;;;;;7.75;46.58;99141.75;4989989;28;8885;-78
2022/04/05 00:12:24;;;;;;;;;34.25;33.50;;;;;7.76;46.80;99133.09;5006145;28;8863;-75
2022/04/05 00:14:53;;;;;;;;;40.50;36.00;;;;;7.79;46.73;99128.81;4990147;28;8871;-75
2022/04/05 00:17:21;;;;;;;;;39.50;36.75;;;;;7.71;46.84;99125.31;5006446;28;8875;-75
2022/04/05 00:19:50;;;;;;;;;40.75;38.25;;;;;7.88;46.39;99135.78;5006353;28;8871;-76
2022/04/05 00:22:19;;;;;;;;;41.50;40.00;;;;;7.81;46.50;99126.22;5005147;28;8867;-77
2022/04/05 00:24:47;;;;;;;;;44.00;37.50;;;;;7.83;46.85;99121.03;5006149;28;8918;-75
2022/04/05 00:27:17;;;;;;;;;43.50;39.75;;;;;7.78;46.34;99121.84;5006468;28;8875;-78
2022/04/05 00:29:46;;;;;;;;;45.00;39.50;;;;;7.83;46.31;99116.69;4942074;28;9009;-77
2022/04/05 00:32:15;;;;;;;;;33.00;33.00;;;;;7.79;47.19;99121.00;5005717;28;9658;-76
2022/04/05 00:34:43;;;;;;;;;44.00;41.25;;;;;7.70;47.66;99115.78;5048326;28;8848;-76
2022/04/05 00:37:12;;;;;;;;;39.75;39.50;;;;;7.68;47.51;99114.91;5030905;28;9555;-75
2022/04/05 00:39:40;;;;;;;;;33.00;31.25;;;;;7.63;47.94;99107.97;5046708;28;8849;-76
2022/04/05 00:42:11;;;;;;;;;27.50;23.25;;;;;7.63;47.31;99106.22;5046844;28;8933;-74
2022/04/05 00:44:40;;;;;;;;;39.75;37.00;;;;;7.61;47.67;99110.56;5048488;28;8837;-76
2022/04/05 00:47:17;;;;;;;;;43.50;39.75;;;;;7.52;48.21;99100.13;5080361;28;8883;-73
2022/04/05 00:49:47;;;;;;;;;36.00;32.50;;;;;7.59;48.18;99096.72;5046516;28;8930;-74
2022/04/05 00:52:17;;;;;;;;;36.25;36.00;;;;;7.60;48.24;99101.06;5046823;28;8960;-75
2022/04/05 00:54:48;;;;;;;;;38.00;37.50;;;;;7.64;47.90;99095.00;5029989;28;8869;-80
2022/04/05 00:57:19;;;;;;;;;38.25;35.25;;;;;7.60;48.19;99099.31;5045855;28;8857;-75
2022/04/05 00:59:54;;;;;;;;;48.25;38.75;;;;;7.64;48.34;99096.72;5048142;28;8861;-76
2022/04/05 01:02:25;;;;;;;;;36.75;35.25;;;;;7.67;48.23;99088.94;5046184;28;8857;-75
2022/04/05 01:04:55;;;;;;;;;38.50;35.00;;;;;7.51;48.63;99091.50;5046303;28;8849;-75
2022/04/05 01:07:25;;;;;;;;;40.50;38.50;;;;;7.55;48.63;99093.22;5030880;28;8861;-74
2022/04/05 01:09:55;;;;;;;;;38.75;34.50;;;;;7.48;48.64;99085.41;5048456;28;8849;-76
2022/04/05 01:12:24;;;;;;;;;30.00;29.50;;;;;7.48;48.69;99083.69;5046914;28;8842;-76
2022/04/05 01:14:54;;;;;;;;;39.50;35.50;;;;;7.30;49.21;99087.06;4995931;28;8861;-75
2022/04/05 01:17:23;;;;;;;;;35.00;33.50;;;;;7.28;49.45;99083.59;5047041;28;8922;-76
2022/04/05 01:19:52;;;;;;;;;40.25;36.75;;;;;7.23;49.88;99085.28;5046605;28;8869;-78
2022/04/05 01:22:20;;;;;;;;;42.75;37.25;;;;;7.13;50.17;99080.94;5047181;28;8867;-76
2022/04/05 01:24:51;;;;;;;;;32.25;31.25;;;;;7.12;49.81;99085.22;5048015;28;8834;-76
2022/04/05 01:27:19;;;;;;;;;39.50;35.50;;;;;7.24;49.99;99081.84;5064068;28;8923;-77
2022/04/05 01:29:49;;;;;;;;;35.50;30.50;;;;;7.31;49.50;99081.00;5013970;28;8926;-76
2022/04/05 01:32:18;;;;;;;;;37.25;36.00;;;;;7.26;49.79;99074.94;5060790;28;8864;-76
2022/04/05 01:34:46;;;;;;;;;42.25;38.75;;;;;7.29;49.59;99066.31;5058640;28;8860;-76
2022/04/05 01:37:15;;;;;;;;;42.50;38.00;;;;;7.19;50.33;99068.00;5046587;28;8965;-75
2022/04/05 01:39:44;;;;;;;;;40.75;38.25;;;;;7.33;49.65;99068.91;5063231;28;8864;-76
2022/04/05 01:42:16;;;;;;;;;33.00;31.50;;;;;7.13;50.65;99068.81;5063721;28;8856;-75
2022/04/05 01:44:45;;;;;;;;;28.75;26.50;;;;;7.26;50.26;99061.97;5046797;28;8833;-76
2022/04/05 01:47:16;;;;;;;;;28.50;26.50;;;;;7.31;49.88;99060.25;5060422;28;8890;-75
2022/04/05 01:49:48;;;;;;;;;36.50;33.75;;;;;7.22;50.25;99057.63;5047578;28;8895;-80
2022/04/05 01:52:18;;;;;;;;;32.50;30.00;;;;;7.22;50.71;99061.09;5065150;28;8861;-76
2022/04/05 01:54:47;;;;;;;;;31.50;30.75;;;;;7.26;50.54;99056.78;5050282;28;9599;-75
2022/04/05 01:57:17;;;;;;;;;33.50;31.25;;;;;7.33;50.16;99057.69;5066559;28;8979;-77
2022/04/05 01:59:45;;;;;;;;;35.50;33.00;;;;;7.42;50.25;99062.91;5050014;28;9157;-76
2022/04/05 02:02:14;;;;;;;;;29.75;29.50;;;;;7.45;50.12;99056.84;5049906;28;8875;-77
2022/04/05 02:04:43;;;;;;;;;34.75;32.00;;;;;7.50;49.79;99056.00;5050091;28;8941;-76
2022/04/05 02:07:14;;;;;;;;;30.25;30.25;;;;;7.50;50.21;99055.16;5049989;28;8841;-75
2022/04/05 02:09:44;;;;;;;;;33.25;32.00;;;;;7.38;50.57;99043.00;5046467;28;8863;-77
2022/04/05 02:12:13;;;;;;;;;29.50;29.50;;;;;7.24;50.41;99042.97;5046257;28;8933;-75
2022/04/05 02:15:03;;;;;;;;;37.00;31.50;;;;;7.27;50.79;99044.69;5046742;28;8871;-76
2022/04/05 02:17:45;;;;;;;;;36.50;35.75;;;;;7.32;50.54;99045.59;5046288;28;8848;-75
2022/04/05 02:20:19;;;;;;;;;30.75;29.00;;;;;7.25;50.71;99041.22;5029973;28;8855;-77
2022/04/05 02:22:48;;;;;;;;;41.25;33.25;;;;;7.32;50.59;99045.59;5077393;28;9608;-77
2022/04/05 02:25:27;;;;;;;;;39.25;34.75;;;;;7.45;50.30;99037.00;5049321;28;8844;-76
2022/04/05 02:27:59;;;;;;;;;34.50;32.25;;;;;7.46;50.15;99040.44;5033284;28;8849;-75
2022/04/05 02:30:38;;;;;;;;;39.00;33.75;;;;;7.44;49.99;99037.84;5017746;28;8853;-78
2022/04/05 02:33:10;;;;;;;;;37.50;33.75;;;;;7.21;51.00;99032.56;5032897;28;8833;-76
2022/04/05 02:35:39;;;;;;;;;38.00;35.25;;;;;7.19;50.80;99031.69;5032379;28;8848;-76
2022/04/05 02:38:08;;;;;;;;;33.75;31.25;;;;;7.20;50.96;99031.69;5033110;28;8868;-75
2022/04/05 02:40:42;;;;;;;;;39.50;36.00;;;;;7.17;51.24;99026.50;5066020;28;8857;-74
2022/04/05 02:43:13;;;;;;;;;31.75;28.75;;;;;7.21;51.24;99028.22;5049556;28;9649;-75
2022/04/05 02:45:44;;;;;;;;;32.25;32.25;;;;;7.26;51.21;99024.78;5049101;28;8857;-75
2022/04/05 02:48:15;;;;;;;;;34.75;32.00;;;;;7.34;51.01;99025.72;5065773;28;8975;-76
2022/04/05 02:50:44;;;;;;;;;34.75;32.75;;;;;7.32;51.04;99028.28;5041204;28;8901;-77
2022/04/05 02:53:13;;;;;;;;;39.50;36.00;;;;;7.26;51.36;99028.28;5031086;28;9595;-75
2022/04/05 02:55:43;;;;;;;;;30.50;29.75;;;;;7.48;50.73;99033.53;5030057;28;8901;-76
2022/04/05 02:58:13;;;;;;;;;35.25;34.25;;;;;7.37;50.97;99028.28;4967224;28;8842;-76
2022/04/05 03:00:45;;;;;;;;;36.75;33.25;;;;;7.23;51.02;99029.09;5014659;28;8957;-75
2022/04/05 03:03:16;;;;;;;;;38.75;38.75;;;;;7.37;51.04;99029.19;5013081;28;8868;-75
2022/04/05 03:05:52;;;;;;;;;33.75;32.00;;;;;7.36;50.81;99027.44;5047541;28;8845;-78
2022/04/05 03:08:23;;;;;;;;;37.00;33.50;;;;;7.17;51.81;99025.63;5030498;28;8848;-76
2022/04/05 03:10:53;;;;;;;;;37.50;34.00;;;;;7.37;50.78;99024.00;5047118;28;8887;-75
2022/04/05 03:13:24;;;;;;;;;42.00;35.75;;;;;7.51;50.59;99029.22;5012750;28;8837;-75
2022/04/05 03:15:55;;;;;;;;;37.25;35.25;;;;;7.50;50.71;99019.69;5013929;28;9709;-76
2022/04/05 03:18:25;;;;;;;;;38.50;32.75;;;;;7.59;50.53;99029.25;5013871;28;8854;-78
2022/04/05 03:20:54;;;;;;;;;31.25;30.00;;;;;7.66;50.20;99019.75;5013830;28;9599;-76
2022/04/05 03:23:23;;;;;;;;;37.75;35.50;;;;;7.71;50.35;99024.09;5029990;28;8845;-76
2022/04/05 03:25:53;;;;;;;;;25.00;23.25;;;;;7.76;49.82;99024.97;5030257;28;9798;-75
2022/04/05 03:28:25;;;;;;;;;36.50;32.25;;;;;7.84;49.78;99026.72;5019222;28;8893;-77
2022/04/05 03:30:56;;;;;;;;;38.25;34.75;;;;;7.89;49.87;99023.25;5031205;28;9504;-76
2022/04/05 03:33:24;;;;;;;;;17.00;12.75;;;;;7.97;49.77;99028.47;5049324;28;8837;-76
2022/04/05 03:35:56;;;;;;;;;34.25;32.75;;;;;8.04;48.94;99021.56;5047828;28;8845;-75
2022/04/05 03:38:27;;;;;;;;;29.75;28.25;;;;;8.08;49.52;99021.56;5048143;28;8867;-75
2022/04/05 03:40:56;;;;;;;;;33.75;32.75;;;;;8.12;48.85;99025.88;5049135;28;8845;-76
2022/04/05 03:43:26;;;;;;;;;34.50;34.00;;;;;8.16;49.24;99024.16;5047988;28;9070;-75
2022/04/05 03:45:58;;;;;;;;;36.25;34.75;;;;;8.17;48.90;99020.72;5048153;28;8845;-78
2022/04/05 03:48:28;;;;;;;;;35.25;35.25;;;;;8.20;48.78;99021.59;5047414;28;8860;-77
2022/04/05 03:51:08;;;;;;;;;35.75;33.50;;;;;8.20;48.29;99025.88;5064373;28;9023;-75
2022/04/05 03:53:39;;;;;;;;;31.00;31.00;;;;;8.20;48.62;99024.19;5047690;28;8938;-79
2022/04/05 03:56:14;;;;;;;;;35.50;32.25;;;;;8.23;48.59;99023.31;5031242;28;8845;-76
2022/04/05 03:58:43;;;;;;;;;35.25;33.25;;;;;8.26;49.09;99023.31;5064231;28;8898;-76
2022/04/05 04:01:14;;;;;;;;;34.25;32.00;;;;;8.24;48.48;99022.44;5030848;28;8880;-77
2022/04/05 04:03:43;;;;;;;;;36.75;31.75;;;;;8.25;48.99;99020.72;5029288;28;8853;-78
2022/04/05 04:06:12;;;;;;;;;45.25;41.50;;;;;8.24;48.65;99017.25;5063945;28;8853;-77
2022/04/05 04:08:41;;;;;;;;;32.00;32.00;;;;;8.25;48.83;99018.97;5048330;28;8885;-75
2022/04/05 04:11:10;;;;;;;;;35.75;32.25;;;;;8.20;48.96;99013.78;5031386;28;8962;-75
2022/04/05 04:13:39;;;;;;;;;33.25;33.25;;;;;8.23;48.34;99015.50;5047262;28;8930;-77
2022/04/05 04:16:08;;;;;;;;;33.25;31.50;;;;;8.25;48.05;99023.31;5049123;28;8869;-75
2022/04/05 04:18:42;;;;;;;;;35.75;32.75;;;;;8.18;48.40;99020.72;5016064;28;8899;-75
2022/04/05 04:21:11;;;;;;;;;38.00;33.00;;;;;8.19;48.59;99019.84;5062735;28;8890;-76
2022/04/05 04:23:40;;;;;;;;;29.25;28.25;;;;;8.20;48.62;99026.78;5063993;28;8975;-75
2022/04/05 04:26:10;;;;;;;;;33.50;29.00;;;;;8.24;48.23;99024.16;5047727;28;8837;-76
2022/04/05 04:28:39;;;;;;;;;30.00;29.50;;;;;8.24;48.78;99021.56;5031437;28;8837;-76
2022/04/05 04:31:07;;;;;;;;;35.50;32.25;;;;;8.30;48.40;99026.75;5031126;28;8903;-76
2022/04/05 04:33:36;;;;;;;;;37.00;34.25;;;;;8.35;48.65;99028.47;5047699;28;8860;-78
2022/04/05 04:36:07;;;;;;;;;55.25;45.75;;;;;8.43;48.53;99023.34;5043688;28;8881;-75
2022/04/05 04:38:36;;;;;;;;;43.50;35.00;;;;;8.48;48.32;99026.78;5046225;28;8868;-77
2022/04/05 04:41:05;;;;;;;;;45.75;38.25;;;;;8.53;48.08;99025.06;5048371;28;8860;-75
2022/04/05 04:43:34;;;;;;;;;36.50;33.50;;;;;8.61;47.98;99024.19;5046870;28;8892;-80
2022/04/05 04:46:03;;;;;;;;;105.75;91.00;;;;;8.66;48.35;99028.53;5047902;28;8942;-78
2022/04/05 04:48:33;;;;;;;;;32.25;30.00;;;;;8.73;47.41;99026.75;5048133;28;10318;-76
2022/04/05 04:51:02;;;;;;;;;33.75;31.25;;;;;8.78;47.60;99027.63;5079940;28;8995;-79
2022/04/05 04:53:32;;;;;;;;;39.00;33.25;;;;;8.85;47.43;99020.69;5027601;28;9591;-75
2022/04/05 04:56:00;;;;;;;;;40.00;35.25;;;;;8.89;47.40;99035.41;5018840;28;8957;-77
2022/04/05 04:58:37;;;;;;;;;36.50;30.50;;;;;8.96;47.13;99027.59;5056843;28;8865;-77
2022/04/05 05:01:06;;;;;;;;;35.00;32.75;;;;;9.05;47.02;99020.63;5044754;28;8846;-76
2022/04/05 05:03:35;;;;;;;;;37.25;36.25;;;;;9.11;46.57;99024.09;5011315;28;8874;-77
2022/04/05 05:06:04;;;;;;;;;41.25;36.50;;;;;9.18;46.76;99023.19;5028456;28;9071;-75
2022/04/05 05:08:35;;;;;;;;;42.25;36.00;;;;;9.27;45.87;99032.69;5045096;28;8838;-74
2022/04/05 05:11:03;;;;;;;;;50.00;40.75;;;;;9.31;45.97;99034.41;5010498;28;8991;-75
2022/04/05 05:13:32;;;;;;;;;34.25;30.25;;;;;9.40;45.92;99038.72;5044958;28;8947;-76
2022/04/05 05:16:01;;;;;;;;;26.25;24.50;;;;;9.51;46.28;99039.53;5008554;28;8864;-76
2022/04/05 05:18:30;;;;;;;;;30.75;28.25;;;;;9.62;45.40;99036.91;5025377;28;8938;-76
2022/04/05 05:20:58;;;;;;;;;39.50;38.75;;;;;9.73;45.17;99039.44;5008732;28;8883;-75
2022/04/05 05:23:27;;;;;;;;;33.50;32.50;;;;;9.81;45.21;99037.66;5009907;28;9007;-76
2022/04/05 05:25:58;;;;;;;;;39.50;38.25;;;;;9.90;44.38;99037.59;5060830;28;9794;-75
2022/04/05 05:28:26;;;;;;;;;36.50;33.50;;;;;10.01;44.72;99034.06;5058359;28;8980;-76
2022/04/05 05:30:55;;;;;;;;;43.00;35.00;;;;;10.11;43.96;99040.94;4977920;28;8844;-76
2022/04/05 05:33:24;;;;;;;;;39.25;36.75;;;;;10.21;44.07;99041.72;5047220;28;8850;-75
2022/04/05 05:35:53;;;;;;;;;37.25;34.75;;;;;10.32;43.97;99038.22;5064629;28;8877;-78
2022/04/05 05:38:22;;;;;;;;;34.25;33.75;;;;;10.42;43.65;99046.84;5014223;28;8962;-76
2022/04/05 05:40:50;;;;;;;;;35.00;31.25;;;;;10.52;43.60;99045.88;5047252;28;8924;-78
2022/04/05 05:43:22;;;;;;;;;34.75;34.75;;;;;10.62;43.51;99049.25;5030092;28;9052;-78
2022/04/05 05:45:52;;;;;;;;;36.25;31.75;;;;;10.61;42.98;99046.69;5041952;28;8942;-76
2022/04/05 05:48:21;;;;;;;;;42.25;37.75;;;;;10.69;42.96;99040.50;5040125;28;8957;-75
2022/04/05 05:50:51;;;;;;;;;36.75;33.00;;;;;10.82;42.87;99045.63;5026324;28;9668;-77
2022/04/05 05:53:19;;;;;;;;;39.75;37.25;;;;;10.95;42.60;99043.75;5011419;28;8844;-78
2022/04/05 05:55:49;;;;;;;;;34.00;34.00;;;;;11.09;42.56;99042.69;4979038;28;8949;-76
2022/04/05 05:58:18;;;;;;;;;35.75;30.25;;;;;11.22;42.28;99043.44;4993323;28;8979;-75
2022/04/05 06:00:48;;;;;;;;;37.25;35.25;;;;;11.20;42.23;99040.00;5025464;28;8864;-74
2022/04/05 06:03:17;;;;;;;;;37.00;32.50;;;;;11.35;42.06;99046.78;5025112;28;8864;-76
2022/04/05 06:05:47;;;;;;;;;35.75;31.50;;;;;11.47;41.92;99046.66;4976394;28;8914;-74
2022/04/05 06:08:17;;;;;;;;;34.50;32.00;;;;;11.61;41.68;99051.69;5026173;28;8860;-73
2022/04/05 06:10:45;;;;;;;;;31.75;31.25;;;;;11.75;41.51;99046.28;5026311;28;9621;-77
2022/04/05 06:13:15;;;;;;;;;38.00;32.00;;;;;11.90;41.51;99053.06;5026202;28;8845;-73
2022/04/05 06:15:43;;;;;;;;;32.75;29.75;;;;;12.01;40.70;99045.94;5011286;28;8864;-73
2022/04/05 06:18:13;;;;;;;;;28.75;26.00;;;;;12.18;40.61;99047.47;5035215;28;8850;-73
2022/04/05 06:20:42;;;;;;;;;31.50;29.50;;;;;12.31;40.17;99048.13;5036157;28;8848;-73
2022/04/05 06:23:11;;;;;;;;;28.25;27.00;;;;;12.32;39.51;99045.47;4957339;28;8874;-75
2022/04/05 06:25:39;;;;;;;;;29.00;26.25;;;;;12.43;39.69;99051.41;4990448;28;8982;-72
2022/04/05 06:28:10;;;;;;;;;28.75;28.00;;;;;12.55;39.63;99047.75;5006948;28;9679;-75
2022/04/05 06:30:40;;;;;;;;;20.60;19.40;;;;;12.45;37.83;99047.00;4990934;28;8870;-74
2022/04/05 06:33:10;;;;;;;;;22.25;22.25;;;;;12.55;39.05;99045.13;5007639;28;8886;-73
2022/04/05 06:35:42;;;;;;;;;20.00;19.00;;;;;12.06;38.38;99046.75;4990144;28;8873;-73
2022/04/05 06:38:12;;;;;;;;;18.00;16.80;;;;;11.64;39.46;99049.00;5006225;28;8927;-73
2022/04/05 06:40:43;;;;;;;;;20.00;19.50;;;;;11.31;40.16;99048.56;4990015;28;8884;-72
2022/04/05 06:43:11;;;;;;;;;17.50;16.75;;;;;11.12;40.67;99050.50;5006434;28;8886;-74
2022/04/05 06:45:41;;;;;;;;;17.50;17.50;;;;;10.78;41.10;99047.38;4989844;28;8882;-77
2022/04/05 06:48:10;;;;;;;;;17.40;17.40;;;;;11.21;41.34;99052.16;5006267;28;9658;-74
2022/04/05 06:50:40;;;;;;;;;16.20;15.60;;;;;11.35;41.02;99045.94;4989352;28;8861;-73
2022/04/05 06:53:10;;;;;;;;;16.20;16.20;;;;;11.00;40.40;99053.25;4973125;28;9654;-73
2022/04/05 06:55:39;;;;;;;;;20.75;19.25;;;;;10.96;40.85;99056.75;5061841;28;8877;-76
2022/04/05 06:58:09;;;;;;;;;17.80;17.80;;;;;10.63;41.72;99053.59;5048974;28;9010;-73
2022/04/05 07:00:38;;;;;;;;;15.50;15.50;;;;;11.01;41.93;99046.28;5047626;28;8869;-73
2022/04/05 07:03:07;;;;;;;;;13.60;13.60;;;;;10.93;40.66;99044.63;5060409;28;8860;-72
2022/04/05 07:05:36;;;;;;;;;15.50;13.50;;;;;10.64;42.05;99050.13;5037355;28;8887;-72
2022/04/05 07:08:07;;;;;;;;;15.00;13.20;;;;;10.99;41.12;99053.28;5030202;28;8861;-74
2022/04/05 07:10:37;;;;;;;;;14.80;14.40;;;;;10.81;42.20;99049.09;5013639;28;8979;-74
2022/04/05 07:13:08;;;;;;;;;14.40;13.00;;;;;10.89;41.35;99047.28;5047583;28;8876;-72
2022/04/05 07:15:37;;;;;;;;;15.25;15.25;;;;;10.93;41.62;99051.59;5048341;28;8853;-75
2022/04/05 07:18:10;;;;;;;;;17.80;17.00;;;;;10.92;41.70;99049.84;5047244;28;8873;-73
2022/04/05 07:20:39;;;;;;;;;17.00;15.00;;;;;11.36;40.85;99047.63;5053681;28;8887;-73
2022/04/05 07:23:09;;;;;;;;;17.25;13.00;;;;;11.21;40.40;99049.56;5047470;28;8865;-75
2022/04/05 07:25:37;;;;;;;;;17.40;14.40;;;;;11.37;40.08;99049.38;5048832;28;8909;-76
2022/04/05 07:28:07;;;;;;;;;19.00;16.40;;;;;11.11;40.73;99048.81;5048345;28;8880;-76
2022/04/05 07:30:35;;;;;;;;;13.80;13.80;;;;;10.79;41.38;99048.25;5063298;28;8859;-74
2022/04/05 07:33:04;;;;;;;;;13.80;13.80;;;;;11.08;41.16;99053.19;4981089;28;8911;-73
2022/04/05 07:35:33;;;;;;;;;11.80;11.80;;;;;11.60;40.67;99043.88;4993026;28;8840;-78
2022/04/05 07:38:01;;;;;;;;;18.40;15.00;;;;;11.42;40.39;99050.19;5025391;28;8904;-75
2022/04/05 07:43:15;;;;;;;;;20.00;18.80;;;;;11.50;40.11;99056.19;5023167;28;8871;-74
2022/04/05 07:45:44;;;;;;;;;17.40;14.80;;;;;11.54;39.80;99043.94;4977089;28;9042;-71
2022/04/05 07:48:13;;;;;;;;;14.40;14.40;;;;;11.67;40.02;99053.34;4992677;28;8860;-73
2022/04/05 07:50:42;;;;;;;;;20.75;20.25;;;;;11.55;40.48;99051.78;5022681;28;8973;-74
2022/04/05 07:53:12;;;;;;;;;18.20;15.20;;;;;11.67;39.49;99050.75;5025533;28;8873;-74
2022/04/05 07:55:43;;;;;;;;;14.20;13.00;;;;;11.87;39.54;99047.84;5025149;28;8864;-74
2022/04/05 07:58:12;;;;;;;;;13.00;12.80;;;;;12.25;39.22;99043.88;5024927;28;9727;-72
2022/04/05 08:00:40;;;;;;;;;18.80;16.80;;;;;11.93;40.20;99050.44;5021217;28;8865;-73
2022/04/05 08:03:09;;;;;;;;;20.00;18.40;;;;;12.32;39.76;99050.72;5025407;28;8872;-73
2022/04/05 08:05:40;;;;;;;;;20.60;19.80;;;;;12.51;40.02;99046.03;5009309;28;8868;-74
2022/04/05 08:08:09;;;;;;;;;15.60;15.20;;;;;12.06;39.16;99048.47;5025551;28;8911;-74
2022/04/05 08:10:37;;;;;;;;;15.40;15.40;;;;;11.90;39.45;99053.94;5042135;28;8865;-72
2022/04/05 08:13:08;;;;;;;;;17.20;15.80;;;;;12.11;39.38;99051.03;5021326;28;8865;-75
2022/04/05 08:15:39;;;;;;;;;20.40;19.60;;;;;12.45;39.44;99052.22;5004578;28;8868;-73
2022/04/05 08:18:09;;;;;;;;;18.00;17.00;;;;;11.63;39.49;99052.53;5025443;28;8875;-73
2022/04/05 08:20:39;;;;;;;;;17.40;16.00;;;;;11.73;40.52;99041.97;5021910;28;8993;-74
2022/04/05 08:23:09;;;;;;;;;24.25;21.25;;;;;12.27;39.64;99045.56;5019613;28;8920;-73
2022/04/05 08:25:37;;;;;;;;;16.80;16.00;;;;;12.47;39.27;99032.16;4965729;28;8901;-73
2022/04/05 08:28:08;;;;;;;;;16.20;16.20;;;;;12.77;37.96;99037.75;5020484;28;8878;-74
2022/04/05 08:30:36;;;;;;;;;16.80;15.00;;;;;12.47;38.33;99032.16;5013574;28;8897;-74
2022/04/05 08:33:05;;;;;;;;;17.60;15.60;;;;;12.90;38.29;99033.16;5023524;28;8868;-73
2022/04/05 08:35:34;;;;;;;;;12.80;11.20;;;;;13.17;35.87;99026.53;5042380;28;8999;-71
2022/04/05 08:38:02;;;;;;;;;16.60;16.40;;;;;12.84;36.52;99030.66;5008720;28;8944;-72
2022/04/05 08:40:31;;;;;;;;;14.20;13.20;;;;;13.14;35.37;99021.38;4976239;28;9711;-73
2022/04/05 08:43:00;;;;;;;;;13.80;13.80;;;;;13.41;35.30;99025.22;5028237;28;9014;-72
2022/04/05 08:45:30;;;;;;;;;13.60;13.00;;;;;13.55;34.28;99021.47;5007995;28;8876;-72
2022/04/05 08:48:00;;;;;;;;;14.20;13.20;;;;;12.93;35.02;99021.78;5027963;28;8989;-71
2022/04/05 08:50:31;;;;;;;;;17.40;15.60;;;;;13.16;36.09;99022.22;5040009;28;9669;-71
2022/04/05 08:53:01;;;;;;;;;10.60;9.80;;;;;13.60;35.54;99017.00;5047639;28;8873;-75
2022/04/05 08:55:36;;;;;;;;;13.20;12.80;;;;;13.61;35.21;99013.47;5047312;28;8903;-71
2022/04/05 08:58:05;;;;;;;;;12.80;11.40;;;;;13.34;36.24;99013.16;5028513;28;8833;-72
2022/04/05 09:00:35;;;;;;;;;11.00;9.40;;;;;13.69;35.74;99008.09;5046905;28;8911;-72
2022/04/05 09:03:06;;;;;;;;;14.20;13.20;;;;;13.61;35.14;99006.47;5065845;28;8861;-72
2022/04/05 09:05:36;;;;;;;;;15.40;13.00;;;;;13.30;35.76;99008.88;5051656;28;8861;-73
2022/04/05 09:08:22;;;;;;;;;15.40;15.40;;;;;12.65;37.61;99006.59;5051151;28;8849;-72
2022/04/05 09:10:53;;;;;;;;;18.00;17.00;;;;;12.97;37.89;99013.84;5040360;28;8873;-74
2022/04/05 09:13:25;;;;;;;;;10.40;10.40;;;;;12.65;39.15;99010.06;5051292;28;8923;-75
2022/04/05 09:15:59;;;;;;;;;14.40;14.00;;;;;12.96;36.89;99001.66;5051049;28;8875;-75
2022/04/05 09:18:33;;;;;;;;;11.60;11.60;;;;;13.21;36.17;99007.28;5050466;28;9680;-72
2022/04/05 09:21:02;;;;;;;;;10.40;9.80;;;;;13.60;36.58;98998.66;5050508;28;8885;-71
2022/04/05 09:23:34;;;;;;;;;16.60;15.60;;;;;13.64;35.42;98997.69;5047792;28;8873;-74
2022/04/05 09:26:07;;;;;;;;;9.60;8.80;;;;;13.98;35.71;98989.91;5048849;28;8853;-73
2022/04/05 09:28:38;;;;;;;;;5.80;4.80;;;;;14.29;35.29;98977.81;5050192;28;8865;-73
2022/04/05 09:31:10;;;;;;;;;9.00;9.00;;;;;14.40;32.54;98981.94;5047469;28;8861;-73
2022/04/05 09:33:41;;;;;;;;;8.00;7.20;;;;;14.31;31.95;98983.91;5051229;28;8879;-76
2022/04/05 09:36:12;;;;;;;;;10.00;9.20;;;;;14.47;32.62;98977.38;5050522;28;8865;-72
2022/04/05 09:38:44;;;;;;;;;10.60;9.20;;;;;14.21;32.63;98975.41;5033205;28;8861;-73
2022/04/05 09:41:16;;;;;;;;;9.80;9.80;;;;;14.38;33.14;98978.44;5050789;28;8907;-74
2022/04/05 09:43:54;;;;;;;;;7.80;7.80;;;;;13.91;32.55;98977.00;5066188;28;8982;-72
2022/04/05 09:46:25;;;;;;;;;9.00;9.00;;;;;13.61;33.38;98968.91;5050779;28;9028;-75
2022/04/05 09:49:06;;;;;;;;;11.00;10.40;;;;;13.13;34.11;98969.91;5048918;28;8856;-72
2022/04/05 09:51:40;;;;;;;;;11.40;11.20;;;;;12.76;35.90;98970.63;5048741;28;8845;-75
2022/04/05 09:54:18;;;;;;;;;15.60;15.40;;;;;12.81;36.49;98967.91;5050605;28;8876;-75
2022/04/05 09:56:47;;;;;;;;;11.00;10.00;;;;;12.79;36.28;98964.47;5049263;28;8959;-78
2022/04/05 09:59:18;;;;;;;;;10.80;10.00;;;;;12.95;35.98;98959.78;5030254;28;8841;-76
2022/04/05 10:01:51;;;;;;;;;12.80;12.80;;;;;13.37;36.14;98945.00;5064547;28;8860;-77
2022/04/05 10:04:20;;;;;;;;;10.00;9.80;;;;;13.49;34.69;98940.41;5077518;28;8837;-76
2022/04/05 10:06:48;;;;;;;;;12.20;11.00;;;;;13.75;34.09;98948.53;5044574;28;8857;-75
2022/04/05 10:09:20;;;;;;;;;10.40;9.00;;;;;13.98;33.00;98941.88;5048684;28;8873;-76
2022/04/05 10:11:48;;;;;;;;;12.40;12.40;;;;;14.07;32.79;98928.56;5050262;28;8885;-74
2022/04/05 10:14:20;;;;;;;;;10.40;10.40;;;;;13.91;33.34;98935.06;5049992;28;8857;-77
2022/04/05 10:16:53;;;;;;;;;11.60;11.60;;;;;13.68;33.76;98935.59;5049385;28;8861;-75
2022/04/05 10:19:23;;;;;;;;;12.60;12.20;;;;;14.04;33.86;98932.13;5042285;28;8895;-74
2022/04/05 10:21:52;;;;;;;;;16.80;14.40;;;;;14.15;32.99;98930.97;5048897;28;8880;-74
2022/04/05 10:24:22;;;;;;;;;12.80;11.00;;;;;14.12;31.93;98921.44;5064565;28;8861;-74
2022/04/05 10:26:54;;;;;;;;;11.80;10.60;;;;;14.16;31.91;98923.06;5049331;28;8848;-76
2022/04/05 10:29:23;;;;;;;;;12.60;11.40;;;;;14.31;32.26;98920.94;5015611;28;8861;-76
2022/04/05 10:32:02;;;;;;;;;14.20;11.80;;;;;14.51;31.02;98915.19;5048213;28;8869;-74
2022/04/05 10:34:37;;;;;;;;;15.00;12.00;;;;;14.08;32.39;98906.66;5049450;28;8837;-76
2022/04/05 10:37:16;;;;;;;;;13.00;12.00;;;;;14.50;31.36;98916.97;5049538;28;9026;-75
2022/04/05 10:40:09;;;;;;;;;11.60;11.60;;;;;14.34;31.76;98913.00;5049389;28;8954;-72
2022/04/05 10:42:41;;;;;;;;;12.60;10.00;;;;;14.75;32.25;98914.56;5048305;28;8853;-75
2022/04/05 10:45:13;;;;;;;;;15.40;15.20;;;;;14.48;31.93;98908.28;5049155;28;8975;-74
2022/04/05 10:48:16;;;;;;;;;14.60;13.80;;;;;14.66;31.52;98893.81;5048035;28;8888;-72
2022/04/05 10:51:12;;;;;;;;;14.60;13.40;;;;;14.71;31.28;98904.19;4993195;28;8889;-72
2022/04/05 10:54:17;;;;;;;;;9.80;9.80;;;;;14.64;30.99;98897.38;5026497;28;8840;-72
2022/04/05 10:56:32;;;;;;;;;13.80;13.80;;;;;14.51;31.62;98896.81;5009863;28;8860;-74
2022/04/05 10:59:28;;;;;;;;;13.00;11.60;;;;;14.88;31.60;98891.44;5027084;28;8856;-72
2022/04/05 11:01:56;;;;;;;;;10.80;10.80;;;;;14.89;31.29;98887.06;5026306;28;8894;-71
2022/04/05 11:04:36;;;;;;;;;10.60;10.20;;;;;14.90;30.73;98871.25;5026675;28;8844;-74
2022/04/05 11:07:12;;;;;;;;;19.60;17.20;;;;;15.18;31.59;98878.34;5014382;28;8849;-74
2022/04/05 11:09:49;;;;;;;;;12.80;12.20;;;;;14.66;31.25;98871.97;5026672;28;8848;-71
2022/04/05 11:12:26;;;;;;;;;6.40;6.40;;;;;14.74;31.59;98873.44;5026209;28;8985;-74
2022/04/05 11:14:57;;;;;;;;;12.60;9.80;;;;;15.09;31.98;98871.59;5026317;28;9594;-71
2022/04/05 11:17:27;;;;;;;;;12.80;11.00;;;;;15.27;31.11;98874.56;5000151;28;9030;-71
2022/04/05 11:20:00;;;;;;;;;7.20;7.20;;;;;15.52;30.35;98862.38;5007873;28;9040;-72
2022/04/05 11:22:31;;;;;;;;;13.20;11.80;;;;;15.12;30.24;98866.25;5010062;28;8880;-72
2022/04/05 11:25:04;;;;;;;;;10.00;10.00;;;;;15.45;30.76;98863.47;5036171;28;8947;-72
2022/04/05 11:27:38;;;;;;;;;13.00;13.00;;;;;15.98;30.22;98860.91;5048336;28;8849;-71
2022/04/05 11:30:54;;;;;;;;;9.80;9.80;;;;;16.33;28.34;98861.47;5047552;28;8856;-71
2022/04/05 11:33:39;;;;;;;;;12.60;12.20;;;;;15.82;28.97;98872.81;5040821;28;8983;-74
2022/04/05 11:36:13;;;;;;;;;11.60;11.40;;;;;15.63;29.23;98858.53;5030521;28;8891;-72
2022/04/05 11:38:43;;;;;;;;;10.80;9.40;;;;;15.98;30.39;98853.00;5017342;28;9642;-76
2022/04/05 11:41:19;;;;;;;;;12.80;12.80;;;;;16.45;29.77;98859.34;5047262;28;8856;-73
2022/04/05 11:43:50;;;;;;;;;9.80;9.40;;;;;16.89;29.13;98846.34;5048458;28;9652;-74
2022/04/05 11:46:21;;;;;;;;;10.00;10.00;;;;;17.28;28.10;98841.31;5047085;28;8864;-71
2022/04/05 11:48:52;;;;;;;;;9.40;9.40;;;;;17.58;28.09;98842.78;5046992;28;8910;-72